Time;durP1;ratioP1;P1;durP2;ratioP2;P2;SDS_P1;SDS_P2;PMS_P1;PMS_P2;Temp;Humidity;BMP_temperature;BMP_pressure;BME280_temperature;BME280_humidity;BME280_pressure;Samples;Min_cycle;Max_cycle;Signal;HPM_P1;HPM_P2
2022/12/19 00:01:38;;;;;;;39.47;15.70;;;3.80;99.90;;;;;;4952193;28;20200;-63
2022/12/19 00:04:44;;;;;;;40.00;16.17;;;3.80;99.90;;;;;;4951979;29;20265;-63
2022/12/19 00:07:13;;;;;;;43.03;16.27;;;3.80;99.90;;;;;;4950635;29;20193;-64
2022/12/19 00:09:44;;;;;;;38.90;16.80;;;3.80;99.90;;;;;;4951834;29;20687;-63
2022/12/19 00:12:13;;;;;;;37.83;16.07;;;3.90;99.90;;;;;;4934676;29;20196;-63
2022/12/19 00:14:47;;;;;;;41.17;16.60;;;3.90;99.90;;;;;;4951874;29;20201;-63
2022/12/19 00:17:18;;;;;;;36.07;15.00;;;4.00;99.90;;;;;;4951674;29;20228;-63
2022/12/19 00:19:46;;;;;;;47.27;16.73;;;4.00;99.90;;;;;;4951719;29;20670;-63
2022/12/19 00:22:14;;;;;;;43.07;15.93;;;4.00;99.90;;;;;;4953408;29;20201;-63
2022/12/19 00:24:43;;;;;;;44.73;16.40;;;4.00;99.90;;;;;;4969699;28;20558;-64
2022/12/19 00:27:11;;;;;;;32.73;14.23;;;4.10;99.90;;;;;;4955352;29;20275;-62
2022/12/19 00:29:39;;;;;;;42.63;16.13;;;4.10;99.90;;;;;;4954707;29;20220;-64
2022/12/19 00:32:09;;;;;;;35.10;12.53;;;4.10;99.90;;;;;;4956067;29;20207;-64
2022/12/19 00:34:40;;;;;;;39.03;16.63;;;4.10;99.90;;;;;;4953466;29;20208;-63
2022/12/19 00:37:10;;;;;;;38.13;15.47;;;4.20;99.90;;;;;;4953524;29;20673;-63
2022/12/19 00:39:39;;;;;;;36.23;16.17;;;4.20;99.90;;;;;;4954625;29;20200;-63
2022/12/19 00:42:07;;;;;;;42.73;16.73;;;4.20;99.90;;;;;;4954575;29;20197;-63
2022/12/19 00:44:35;;;;;;;38.77;17.10;;;4.30;99.90;;;;;;4953541;28;20558;-63
2022/12/19 00:47:03;;;;;;;35.50;15.40;;;4.30;99.90;;;;;;4953390;29;20193;-63
2022/12/19 00:49:33;;;;;;;39.63;16.23;;;4.30;99.90;;;;;;4953370;29;20222;-63
2022/12/19 00:52:02;;;;;;;34.53;14.67;;;4.40;99.90;;;;;;4954641;29;20670;-64
2022/12/19 00:54:31;;;;;;;38.27;15.53;;;4.50;99.90;;;;;;4954755;29;20188;-63
2022/12/19 00:57:02;;;;;;;40.00;16.00;;;4.50;99.90;;;;;;4954676;29;20200;-64
2022/12/19 00:59:30;;;;;;;31.97;13.83;;;4.50;99.90;;;;;;4954886;29;20188;-63
2022/12/19 01:01:59;;;;;;;30.40;15.10;;;4.60;99.90;;;;;;4954348;29;20208;-64
2022/12/19 01:04:27;;;;;;;32.50;15.60;;;4.60;99.90;;;;;;4954510;28;20255;-63
2022/12/19 01:06:59;;;;;;;33.70;15.00;;;4.70;99.90;;;;;;4953027;29;20290;-64
2022/12/19 01:09:30;;;;;;;33.63;14.60;;;4.70;99.90;;;;;;4954167;29;20212;-64
2022/12/19 01:14:44;;;;;;;31.73;13.77;;;4.90;99.90;;;;;;4952967;29;20261;-64
2022/12/19 01:17:15;;;;;;;29.23;13.80;;;5.00;99.90;;;;;;4954418;29;20224;-64
2022/12/19 01:19:43;;;;;;;28.80;14.43;;;5.00;99.90;;;;;;4954063;29;20192;-64
2022/12/19 01:22:14;;;;;;;29.53;13.37;;;5.00;99.90;;;;;;4954605;29;20195;-63
2022/12/19 01:24:42;;;;;;;34.20;13.97;;;5.10;99.90;;;;;;4954526;29;20650;-63
2022/12/19 01:27:11;;;;;;;28.70;13.50;;;5.10;99.90;;;;;;4953979;28;20616;-63
2022/12/19 01:29:39;;;;;;;28.47;13.97;;;5.20;99.90;;;;;;4954321;29;20212;-64
2022/12/19 01:32:20;;;;;;;28.40;13.17;;;5.20;99.90;;;;;;4953476;28;20562;-64
2022/12/19 01:34:49;;;;;;;30.70;14.70;;;5.20;99.90;;;;;;4951914;28;20192;-63
2022/12/19 01:37:19;;;;;;;32.40;14.30;;;5.20;99.90;;;;;;4953772;29;20200;-63
2022/12/19 01:39:47;;;;;;;29.03;14.00;;;5.30;99.90;;;;;;4953732;29;20678;-64
2022/12/19 01:42:17;;;;;;;29.87;14.40;;;5.30;99.90;;;;;;4954009;29;20650;-64
2022/12/19 01:45:24;;;;;;;31.43;14.77;;;5.40;99.90;;;;;;4953766;29;20195;-64
2022/12/19 01:48:13;;;;;;;26.60;13.87;;;5.40;99.90;;;;;;4946955;28;20218;-64
2022/12/19 01:50:49;;;;;;;32.37;14.10;;;5.40;99.90;;;;;;4952544;29;20216;-64
2022/12/19 01:53:35;;;;;;;31.67;14.67;;;5.40;99.90;;;;;;4953571;29;20196;-64
2022/12/19 01:56:17;;;;;;;28.70;14.57;;;5.50;99.90;;;;;;4969240;28;20512;-63
2022/12/19 01:58:49;;;;;;;28.20;14.60;;;5.50;99.90;;;;;;4953486;29;20188;-64
2022/12/19 02:10:39;;;;;;;26.47;13.47;;;5.60;99.90;;;;;;4954077;29;20328;-64
2022/12/19 02:13:08;;;;;;;25.30;13.57;;;5.70;99.90;;;;;;4953795;29;20275;-63
2022/12/19 02:15:46;;;;;;;24.80;12.60;;;5.70;99.90;;;;;;4953792;29;20193;-64
2022/12/19 02:18:25;;;;;;;22.87;13.47;;;5.70;99.90;;;;;;4953262;29;20238;-64
2022/12/19 02:21:12;;;;;;;24.20;12.43;;;5.70;99.90;;;;;;4952135;28;20192;-63
2022/12/19 02:24:09;;;;;;;27.07;12.67;;;5.80;99.90;;;;;;4952222;29;20199;-63
2022/12/19 02:26:54;;;;;;;23.70;11.87;;;5.80;99.90;;;;;;4953139;28;20197;-63
2022/12/19 02:29:59;;;;;;;23.37;11.93;;;5.90;99.90;;;;;;4952992;29;20220;-63
2022/12/19 02:32:33;;;;;;;23.33;12.10;;;5.80;99.90;;;;;;4953027;29;20199;-63
2022/12/19 02:35:11;;;;;;;26.40;13.30;;;5.90;99.90;;;;;;4953006;29;20192;-64
2022/12/19 02:37:47;;;;;;;21.87;11.77;;;5.90;99.90;;;;;;4967847;28;20192;-64
2022/12/19 02:40:24;;;;;;;28.47;13.20;;;5.90;99.90;;;;;;4953031;29;20196;-64
2022/12/19 02:42:57;;;;;;;25.50;12.40;;;5.90;99.90;;;;;;4935682;28;20200;-63
2022/12/19 02:45:29;;;;;;;27.53;14.30;;;5.90;99.90;;;;;;4952660;28;20663;-64
2022/12/19 02:48:01;;;;;;;24.27;13.20;;;5.90;99.90;;;;;;4953313;29;20206;-64
2022/12/19 02:50:37;;;;;;;25.90;12.90;;;5.90;99.90;;;;;;4952733;29;20228;-64
2022/12/19 02:53:06;;;;;;;25.00;12.23;;;5.90;99.90;;;;;;4967602;28;20192;-64
2022/12/19 02:55:43;;;;;;;27.70;14.07;;;5.90;99.90;;;;;;4952655;29;20207;-64
2022/12/19 02:58:32;;;;;;;25.40;13.27;;;5.90;99.90;;;;;;4952966;29;20192;-63
2022/12/19 03:01:11;;;;;;;24.83;13.40;;;6.00;99.90;;;;;;4952637;29;20192;-64
2022/12/19 03:03:52;;;;;;;28.93;13.83;;;6.00;99.90;;;;;;4952923;29;20195;-64
2022/12/19 03:06:29;;;;;;;21.43;11.43;;;6.10;99.90;;;;;;4952594;29;20192;-63
2022/12/19 03:09:03;;;;;;;20.63;12.83;;;6.00;99.90;;;;;;4952441;29;20188;-64
2022/12/19 03:11:35;;;;;;;26.80;13.80;;;6.10;99.90;;;;;;4953071;29;20528;-64
2022/12/19 03:14:07;;;;;;;23.37;13.47;;;6.10;99.90;;;;;;4952487;29;20210;-64
2022/12/19 03:16:37;;;;;;;24.23;12.93;;;6.10;99.90;;;;;;4952463;29;20519;-64
2022/12/19 03:19:10;;;;;;;27.53;14.47;;;6.20;99.90;;;;;;4952362;29;20199;-64
2022/12/19 03:21:41;;;;;;;23.33;13.30;;;6.10;99.90;;;;;;4952894;29;20196;-64
2022/12/19 03:24:12;;;;;;;25.17;13.07;;;6.20;99.90;;;;;;4952377;29;20553;-64
2022/12/19 03:26:48;;;;;;;26.17;13.77;;;6.20;99.90;;;;;;4952277;29;20207;-64
2022/12/19 03:29:21;;;;;;;27.03;13.17;;;6.20;99.90;;;;;;4952242;29;20693;-64
2022/12/19 03:31:51;;;;;;;22.33;12.23;;;6.20;99.90;;;;;;4950981;28;20200;-64
2022/12/19 03:34:27;;;;;;;25.20;12.97;;;6.30;99.90;;;;;;4952243;29;20196;-64
2022/12/19 03:37:01;;;;;;;28.60;13.73;;;6.30;99.90;;;;;;4952743;29;20279;-64
2022/12/19 03:39:31;;;;;;;29.37;14.87;;;6.30;99.90;;;;;;4951451;28;20655;-63
2022/12/19 03:44:50;;;;;;;26.33;12.97;;;6.30;99.90;;;;;;4966949;28;20283;-64
2022/12/19 03:47:23;;;;;;;26.13;14.07;;;6.40;99.90;;;;;;4952456;29;20205;-64
2022/12/19 03:49:55;;;;;;;22.07;12.10;;;6.40;99.90;;;;;;4952489;29;20204;-63
2022/12/19 03:52:28;;;;;;;18.77;11.43;;;6.50;99.90;;;;;;4951717;29;20216;-64
2022/12/19 03:55:04;;;;;;;18.60;10.87;;;6.50;99.90;;;;;;4952013;29;20197;-64
2022/12/19 03:57:39;;;;;;;20.77;12.47;;;6.50;99.90;;;;;;4954510;28;20219;-64
2022/12/19 04:00:11;;;;;;;19.90;11.47;;;6.50;99.90;;;;;;4955884;29;20184;-64
2022/12/19 04:02:43;;;;;;;18.43;11.77;;;6.60;99.90;;;;;;4955281;28;20546;-64
2022/12/19 04:05:18;;;;;;;20.47;11.87;;;6.60;99.90;;;;;;4955538;29;20207;-64
2022/12/19 04:07:49;;;;;;;17.93;11.40;;;6.70;99.90;;;;;;4955219;29;20207;-64
2022/12/19 04:10:21;;;;;;;17.63;11.10;;;6.70;99.90;;;;;;4955114;28;20223;-63
2022/12/19 04:12:54;;;;;;;20.13;11.93;;;6.70;99.90;;;;;;4955167;29;20197;-63
2022/12/19 04:15:31;;;;;;;18.13;11.70;;;6.70;99.90;;;;;;4954144;29;20643;-63
2022/12/19 04:18:04;;;;;;;16.80;10.37;;;6.70;99.90;;;;;;4954999;29;20231;-64
2022/12/19 04:20:38;;;;;;;14.07;9.90;;;6.80;99.90;;;;;;4954971;29;20199;-64
2022/12/19 04:23:10;;;;;;;19.80;11.27;;;6.90;99.90;;;;;;4955494;29;20278;-64
2022/12/19 04:25:43;;;;;;;19.40;10.93;;;6.90;99.90;;;;;;4955209;29;20208;-64
2022/12/19 04:28:17;;;;;;;19.87;11.30;;;6.90;99.90;;;;;;4938571;29;20192;-62
2022/12/19 04:30:46;;;;;;;17.93;11.27;;;6.90;99.90;;;;;;4953543;29;20294;-64
2022/12/19 04:33:14;;;;;;;18.27;11.13;;;6.90;99.90;;;;;;4954772;28;20196;-64
2022/12/19 04:35:44;;;;;;;16.33;10.33;;;6.90;99.90;;;;;;4954730;29;20196;-64
2022/12/19 04:38:12;;;;;;;16.30;10.63;;;6.90;99.90;;;;;;4954684;29;20200;-65
2022/12/19 04:40:41;;;;;;;15.07;9.43;;;7.00;99.90;;;;;;4954778;29;20200;-64
2022/12/19 04:43:09;;;;;;;14.93;10.23;;;7.00;99.90;;;;;;4954885;28;20188;-65
2022/12/19 04:45:37;;;;;;;17.33;10.50;;;7.00;99.90;;;;;;4969527;28;20536;-64
2022/12/19 04:48:06;;;;;;;14.93;10.17;;;7.00;99.90;;;;;;4954514;29;20200;-64
2022/12/19 04:50:36;;;;;;;16.63;10.10;;;7.00;99.90;;;;;;4955145;29;20299;-64
2022/12/19 04:53:06;;;;;;;19.93;10.20;;;7.10;99.90;;;;;;4954485;29;20192;-65
2022/12/19 04:55:34;;;;;;;14.07;9.83;;;7.00;99.90;;;;;;4953540;29;20307;-64
2022/12/19 04:58:04;;;;;;;16.07;9.93;;;7.10;99.90;;;;;;4954468;28;20689;-64
2022/12/19 05:00:33;;;;;;;14.37;10.00;;;7.10;99.90;;;;;;4953803;29;20197;-65
2022/12/19 05:03:38;;;;;;;14.40;9.67;;;7.10;99.90;;;;;;4954710;29;20272;-64
2022/12/19 05:06:09;;;;;;;16.93;10.17;;;7.10;99.90;;;;;;4969707;28;20220;-64
2022/12/19 05:08:40;;;;;;;12.83;9.37;;;7.10;99.90;;;;;;4954920;28;20223;-64
2022/12/19 05:11:10;;;;;;;14.47;10.20;;;7.20;99.90;;;;;;4954285;29;20666;-64
2022/12/19 05:13:46;;;;;;;16.87;10.47;;;7.10;99.90;;;;;;4954828;29;20626;-63
2022/12/19 05:16:15;;;;;;;14.83;9.63;;;7.10;99.90;;;;;;4955029;29;20196;-64
2022/12/19 05:18:44;;;;;;;14.33;9.53;;;7.20;99.90;;;;;;4936956;29;20319;-64
2022/12/19 05:21:12;;;;;;;15.80;9.50;;;7.20;99.90;;;;;;4968916;28;20228;-64
2022/12/19 05:23:42;;;;;;;21.17;10.20;;;7.20;99.90;;;;;;4954071;29;20196;-64
2022/12/19 05:26:11;;;;;;;12.93;9.40;;;7.20;99.90;;;;;;4954405;29;20197;-64
2022/12/19 05:28:39;;;;;;;14.60;9.30;;;7.20;99.90;;;;;;4954243;29;20203;-64
2022/12/19 05:31:10;;;;;;;17.17;9.60;;;7.20;99.90;;;;;;4953880;29;20216;-64
2022/12/19 05:33:39;;;;;;;12.70;9.83;;;7.20;99.90;;;;;;4953947;29;20643;-65
2022/12/19 05:36:09;;;;;;;16.03;9.63;;;7.20;99.90;;;;;;4954362;29;20202;-64
2022/12/19 05:38:40;;;;;;;22.87;10.93;;;7.10;99.90;;;;;;4954040;29;20196;-64
2022/12/19 05:41:14;;;;;;;16.40;9.70;;;7.10;99.90;;;;;;4953778;29;20195;-64
2022/12/19 05:43:45;;;;;;;18.60;10.23;;;7.10;99.90;;;;;;4954112;29;20201;-64
2022/12/19 05:46:13;;;;;;;15.97;10.30;;;7.10;99.90;;;;;;4952440;29;20569;-64
2022/12/19 05:48:41;;;;;;;13.60;9.43;;;7.20;99.90;;;;;;4953611;29;20227;-64
2022/12/19 05:51:09;;;;;;;13.67;10.13;;;7.20;99.90;;;;;;4953447;29;20215;-62
2022/12/19 05:53:39;;;;;;;18.43;10.60;;;7.20;99.90;;;;;;4953896;29;20547;-64
2022/12/19 05:56:09;;;;;;;13.97;9.40;;;7.20;99.90;;;;;;4953540;29;20267;-64
2022/12/19 05:58:40;;;;;;;14.20;9.83;;;7.20;99.90;;;;;;4953702;29;20192;-63
2022/12/19 06:01:10;;;;;;;12.10;9.10;;;7.20;99.90;;;;;;4952280;29;20182;-64
2022/12/19 06:03:38;;;;;;;13.70;9.67;;;7.20;99.90;;;;;;4953961;28;20196;-64
2022/12/19 06:06:11;;;;;;;11.70;8.07;;;7.20;99.90;;;;;;4951919;29;20246;-64
2022/12/19 06:08:40;;;;;;;13.97;9.30;;;7.20;99.90;;;;;;4952318;29;20196;-64
2022/12/19 06:11:10;;;;;;;15.03;9.13;;;7.20;99.90;;;;;;4951907;29;20216;-64
2022/12/19 06:13:41;;;;;;;13.13;9.53;;;7.20;99.90;;;;;;4953133;29;20188;-63
2022/12/19 06:16:12;;;;;;;14.30;9.23;;;7.20;99.90;;;;;;4953463;29;20204;-63
2022/12/19 06:18:42;;;;;;;11.87;9.07;;;7.20;99.90;;;;;;4952732;29;20231;-63
2022/12/19 06:21:14;;;;;;;12.00;8.10;;;7.20;99.90;;;;;;4967791;28;20200;-64
2022/12/19 06:23:43;;;;;;;15.57;9.20;;;7.20;99.90;;;;;;4951918;29;20188;-64
2022/12/19 06:26:14;;;;;;;15.17;8.63;;;7.20;99.90;;;;;;4953469;29;20196;-64
2022/12/19 06:28:48;;;;;;;11.93;8.20;;;7.20;99.90;;;;;;4953114;29;20224;-63
2022/12/19 06:31:17;;;;;;;14.57;9.90;;;7.20;99.90;;;;;;4953473;28;20718;-64
2022/12/19 06:33:46;;;;;;;10.90;8.53;;;7.20;99.90;;;;;;4953151;29;20196;-64
2022/12/19 06:36:18;;;;;;;12.17;8.40;;;7.20;99.90;;;;;;4953146;29;20192;-63
2022/12/19 06:38:46;;;;;;;14.20;10.23;;;7.20;99.90;;;;;;4968106;28;20195;-64
2022/12/19 06:44:05;;;;;;;15.50;9.37;;;7.20;99.90;;;;;;4953349;29;20203;-64
2022/12/19 06:46:34;;;;;;;12.83;9.57;;;7.20;99.90;;;;;;4953076;28;20187;-64
2022/12/19 06:49:02;;;;;;;18.80;9.83;;;7.20;99.90;;;;;;4967685;28;20235;-64
2022/12/19 06:51:31;;;;;;;12.93;8.97;;;7.20;99.90;;;;;;4952638;29;20208;-64
2022/12/19 06:53:59;;;;;;;13.37;8.50;;;7.20;99.90;;;;;;4953286;29;20196;-64
2022/12/19 06:56:28;;;;;;;15.10;9.33;;;7.20;99.90;;;;;;4952651;29;20581;-64
2022/12/19 06:58:56;;;;;;;12.20;9.27;;;7.20;99.90;;;;;;4953225;28;20228;-64
2022/12/19 07:01:49;;;;;;;10.70;7.93;;;7.20;99.90;;;;;;4952400;29;20211;-64
2022/12/19 07:04:21;;;;;;;12.03;8.50;;;7.30;99.90;;;;;;4952688;29;20192;-64
2022/12/19 07:06:49;;;;;;;11.03;8.70;;;7.30;99.90;;;;;;4968079;28;20199;-62
2022/12/19 07:09:17;;;;;;;10.70;7.93;;;7.30;99.90;;;;;;4952785;29;20654;-63
2022/12/19 07:11:45;;;;;;;18.07;8.90;;;7.40;99.90;;;;;;4952319;28;20713;-63
2022/12/19 07:14:14;;;;;;;12.97;8.20;;;7.40;99.90;;;;;;4952535;29;20288;-64
2022/12/19 07:16:42;;;;;;;13.23;8.73;;;7.40;99.90;;;;;;4952473;29;20242;-64
2022/12/19 07:19:12;;;;;;;10.77;8.17;;;7.40;99.90;;;;;;4951980;28;20224;-64
2022/12/19 07:21:41;;;;;;;13.20;8.67;;;7.50;99.90;;;;;;4953119;28;20267;-64
2022/12/19 07:24:12;;;;;;;12.93;8.90;;;7.50;99.90;;;;;;4952335;29;20276;-64
2022/12/19 07:26:41;;;;;;;11.87;7.70;;;7.50;99.90;;;;;;4952324;29;20218;-64
2022/12/19 07:29:10;;;;;;;12.17;8.30;;;7.50;99.90;;;;;;4952228;29;20219;-63
2022/12/19 07:31:38;;;;;;;15.60;8.17;;;7.50;99.90;;;;;;4953351;29;20212;-64
2022/12/19 07:34:07;;;;;;;12.95;9.63;;;7.50;99.90;;;;;;4970062;28;20741;-64
2022/12/19 07:36:37;;;;;;;13.27;8.57;;;7.60;99.90;;;;;;4970575;28;20287;-64
2022/12/19 07:39:05;;;;;;;10.83;7.93;;;7.60;99.90;;;;;;4955700;29;20200;-64
2022/12/19 07:41:36;;;;;;;10.43;7.93;;;7.60;99.90;;;;;;4955006;29;20184;-64
2022/12/19 07:44:05;;;;;;;11.83;8.33;;;7.60;99.90;;;;;;4955570;29;20207;-64
2022/12/19 07:46:34;;;;;;;11.93;8.30;;;7.60;99.90;;;;;;4956127;29;20200;-65
2022/12/19 07:49:02;;;;;;;11.23;8.20;;;7.60;99.90;;;;;;4954230;29;20192;-64
2022/12/19 07:51:31;;;;;;;10.80;7.53;;;7.60;99.90;;;;;;4955031;29;20227;-64
2022/12/19 07:54:00;;;;;;;13.43;7.33;;;7.60;99.90;;;;;;4955499;29;20192;-61
2022/12/19 07:56:29;;;;;;;13.73;7.93;;;7.60;99.90;;;;;;4970162;28;20200;-64
2022/12/19 07:58:58;;;;;;;10.13;7.70;;;7.60;99.90;;;;;;4955439;28;20248;-64
2022/12/19 08:01:27;;;;;;;9.70;7.30;;;7.60;99.90;;;;;;4955740;29;20196;-63
2022/12/19 08:03:57;;;;;;;10.07;8.10;;;7.60;99.90;;;;;;4969774;28;20200;-63
2022/12/19 08:06:26;;;;;;;7.90;7.00;;;7.70;99.90;;;;;;4989241;28;20222;-64
2022/12/19 08:08:55;;;;;;;8.90;7.13;;;7.70;99.90;;;;;;4974337;28;20196;-63
2022/12/19 08:11:28;;;;;;;11.27;7.40;;;7.70;99.90;;;;;;4973022;28;20201;-64
2022/12/19 08:13:57;;;;;;;9.63;7.30;;;7.70;99.90;;;;;;4957010;28;20241;-64
2022/12/19 08:16:27;;;;;;;9.73;7.00;;;7.70;99.90;;;;;;4969411;28;20200;-64
2022/12/19 08:18:56;;;;;;;10.57;7.47;;;7.80;99.90;;;;;;4953737;28;20318;-64
2022/12/19 08:21:24;;;;;;;8.17;7.33;;;7.80;99.90;;;;;;4954936;28;20318;-64
2022/12/19 08:23:53;;;;;;;10.33;7.33;;;7.80;99.90;;;;;;4955117;28;20189;-64
2022/12/19 08:26:24;;;;;;;11.93;7.43;;;7.80;99.90;;;;;;4954943;28;20287;-64
2022/12/19 08:28:56;;;;;;;12.50;7.17;;;7.80;99.90;;;;;;4953664;28;20664;-63
2022/12/19 08:31:26;;;;;;;9.13;6.73;;;7.90;99.90;;;;;;4953949;29;20232;-63
2022/12/19 08:33:57;;;;;;;9.60;7.33;;;7.90;99.90;;;;;;4954826;29;20220;-63
2022/12/19 08:36:25;;;;;;;9.63;6.93;;;7.90;99.90;;;;;;4954860;29;20192;-64
2022/12/19 08:38:54;;;;;;;7.93;6.47;;;8.00;99.90;;;;;;4955374;28;20246;-63
2022/12/19 08:41:23;;;;;;;7.10;6.27;;;8.00;99.90;;;;;;4954777;28;20192;-64
2022/12/19 08:43:54;;;;;;;7.87;6.27;;;8.00;99.90;;;;;;4954298;28;20275;-64
2022/12/19 08:46:22;;;;;;;8.03;6.80;;;8.00;99.90;;;;;;4954956;28;20204;-64
2022/12/19 08:48:51;;;;;;;8.90;6.90;;;8.00;99.90;;;;;;4955072;28;20553;-64
2022/12/19 08:51:19;;;;;;;9.73;6.20;;;8.00;99.90;;;;;;4954599;28;20692;-64
2022/12/19 08:53:48;;;;;;;9.33;6.23;;;8.00;99.90;;;;;;4954380;28;20218;-64
2022/12/19 08:56:18;;;;;;;7.17;6.47;;;8.10;99.90;;;;;;4957121;28;20211;-63
2022/12/19 08:58:47;;;;;;;6.57;5.60;;;8.10;99.90;;;;;;4973913;28;20620;-64
2022/12/19 09:01:19;;;;;;;7.77;6.50;;;8.20;99.90;;;;;;4988902;28;20192;-63
2022/12/19 09:03:48;;;;;;;9.53;6.70;;;8.20;99.90;;;;;;4973746;28;20195;-63
2022/12/19 09:06:37;;;;;;;7.60;6.50;;;8.20;99.90;;;;;;4973986;28;20588;-63
2022/12/19 09:09:05;;;;;;;7.40;5.77;;;8.20;99.90;;;;;;4973867;28;20196;-64
2022/12/19 09:11:34;;;;;;;10.27;6.33;;;8.20;99.90;;;;;;4988469;28;20203;-63
2022/12/19 09:14:13;;;;;;;8.83;6.30;;;8.20;99.90;;;;;;4973406;28;20215;-64
2022/12/19 09:16:49;;;;;;;8.90;6.37;;;8.20;99.90;;;;;;4973263;28;20226;-64
2022/12/19 09:19:18;;;;;;;7.67;6.13;;;8.30;99.90;;;;;;4973511;28;20219;-64
2022/12/19 09:21:46;;;;;;;6.70;6.07;;;8.30;99.90;;;;;;4973365;28;20199;-64
2022/12/19 09:24:15;;;;;;;10.70;7.10;;;8.30;99.90;;;;;;4973674;28;20199;-64
2022/12/19 09:26:46;;;;;;;8.20;6.00;;;8.20;99.90;;;;;;4988836;28;20227;-63
2022/12/19 09:29:15;;;;;;;7.13;6.43;;;8.20;99.90;;;;;;4973576;28;20198;-64
2022/12/19 09:31:50;;;;;;;8.10;6.50;;;8.20;99.90;;;;;;4973189;28;20662;-64
2022/12/19 09:34:25;;;;;;;7.73;6.53;;;8.20;99.90;;;;;;4973072;28;20211;-64
2022/12/19 09:37:06;;;;;;;6.87;6.33;;;8.20;99.90;;;;;;4973191;28;20231;-64
2022/12/19 09:39:35;;;;;;;7.67;6.80;;;8.20;99.90;;;;;;4973042;28;20519;-64
2022/12/19 09:42:38;;;;;;;10.30;7.23;;;8.20;99.90;;;;;;4973017;28;20237;-64
2022/12/19 09:45:41;;;;;;;11.17;6.67;;;8.20;99.90;;;;;;4972516;28;20184;-64
2022/12/19 09:48:15;;;;;;;8.30;7.00;;;8.20;99.90;;;;;;4968384;28;20735;-65
2022/12/19 09:50:58;;;;;;;8.60;6.90;;;8.20;99.90;;;;;;4972844;28;20276;-64
2022/12/19 09:53:52;;;;;;;8.47;6.97;;;8.20;99.90;;;;;;4972172;28;20212;-64
2022/12/19 09:56:23;;;;;;;10.07;6.87;;;8.20;99.90;;;;;;4973052;28;20195;-64
2022/12/19 09:58:55;;;;;;;8.23;6.60;;;8.20;99.90;;;;;;4972737;28;20198;-64
2022/12/19 10:01:30;;;;;;;8.73;6.80;;;8.20;99.90;;;;;;4973214;28;20274;-64
2022/12/19 10:04:04;;;;;;;8.93;6.93;;;8.20;99.90;;;;;;4973137;28;20195;-64
2022/12/19 10:06:32;;;;;;;12.73;7.70;;;8.20;99.90;;;;;;4972832;28;20195;-64
2022/12/19 10:09:24;;;;;;;7.20;6.47;;;8.20;99.90;;;;;;4972653;28;20575;-64
2022/12/19 10:12:36;;;;;;;9.03;7.07;;;8.10;99.90;;;;;;4972700;28;20204;-64
2022/12/19 10:15:28;;;;;;;8.77;7.87;;;8.20;99.90;;;;;;4972023;28;20191;-64
2022/12/19 10:18:09;;;;;;;10.93;7.53;;;8.20;99.90;;;;;;4972542;28;20237;-64
2022/12/19 10:20:43;;;;;;;10.57;6.87;;;8.20;99.90;;;;;;4972697;28;20191;-64
2022/12/19 10:23:26;;;;;;;9.53;7.00;;;8.30;99.90;;;;;;4972451;28;20191;-64
2022/12/19 10:26:00;;;;;;;9.37;7.20;;;8.30;99.90;;;;;;4972802;28;20200;-64
2022/12/19 10:28:46;;;;;;;9.77;6.97;;;8.40;99.90;;;;;;4972852;28;20184;-64
2022/12/19 10:31:20;;;;;;;10.70;7.30;;;8.50;99.90;;;;;;4972759;28;20199;-64
2022/12/19 10:33:57;;;;;;;7.87;5.60;;;8.60;99.90;;;;;;4972314;28;20573;-64
2022/12/19 10:36:30;;;;;;;9.00;6.07;;;8.70;99.90;;;;;;4971048;28;20198;-63
2022/12/19 10:39:27;;;;;;;7.80;6.37;;;8.90;99.90;;;;;;4972823;28;20211;-64
2022/12/19 10:42:03;;;;;;;8.50;5.50;;;9.00;99.90;;;;;;4972385;28;20557;-64
2022/12/19 10:44:36;;;;;;;6.57;5.87;;;9.20;99.90;;;;;;4972167;28;20187;-64
2022/12/19 10:47:04;;;;;;;8.33;5.17;;;9.30;99.90;;;;;;4972216;28;20218;-64
2022/12/19 10:49:33;;;;;;;7.37;5.03;;;9.40;99.90;;;;;;4972869;28;20198;-64
2022/12/19 10:52:06;;;;;;;8.30;5.20;;;9.40;99.90;;;;;;4971775;28;20285;-65
2022/12/19 10:54:40;;;;;;;6.10;4.87;;;9.30;99.90;;;;;;4971902;28;20214;-63
2022/12/19 10:57:19;;;;;;;7.57;4.87;;;9.40;99.90;;;;;;4972246;28;20576;-63
2022/12/19 10:59:59;;;;;;;5.27;4.77;;;9.40;99.90;;;;;;4971975;28;20187;-63
2022/12/19 11:02:40;;;;;;;7.63;4.60;;;9.40;99.90;;;;;;4972448;28;20245;-63
2022/12/19 11:05:51;;;;;;;4.93;4.47;;;9.50;99.90;;;;;;4971833;28;20180;-64
2022/12/19 11:08:29;;;;;;;3.90;3.70;;;9.60;99.90;;;;;;4970956;28;20650;-63
2022/12/19 11:11:11;;;;;;;4.47;4.03;;;9.60;99.90;;;;;;4971882;28;20184;-64
2022/12/19 11:14:18;;;;;;;5.00;3.60;;;9.80;99.90;;;;;;4972081;28;20237;-64
2022/12/19 11:17:22;;;;;;;5.67;3.80;;;9.90;99.90;;;;;;4971572;28;20235;-63
2022/12/19 11:20:13;;;;;;;3.37;3.07;;;10.00;99.90;;;;;;4970580;28;20199;-63
2022/12/19 11:23:01;;;;;;;4.03;3.70;;;10.10;99.90;;;;;;4971935;28;20223;-63
2022/12/19 11:25:58;;;;;;;4.03;3.40;;;10.20;99.90;;;;;;4972199;28;20199;-63
2022/12/19 11:28:46;;;;;;;3.40;3.10;;;10.20;99.90;;;;;;4972653;28;20630;-63
2022/12/19 11:31:36;;;;;;;4.07;3.63;;;10.30;99.90;;;;;;4971670;28;20200;-63
2022/12/19 11:34:26;;;;;;;7.63;3.20;;;10.30;99.90;;;;;;4971257;28;20215;-64
2022/12/19 11:36:59;;;;;;;3.33;3.13;;;10.40;99.90;;;;;;4971485;28;20183;-63
2022/12/19 11:39:35;;;;;;;5.53;3.00;;;10.40;99.90;;;;;;4971886;28;20187;-64
2022/12/19 11:42:11;;;;;;;3.47;3.03;;;10.50;99.90;;;;;;4971857;28;20205;-63
2022/12/19 11:44:46;;;;;;;3.57;3.30;;;10.50;99.90;;;;;;4986657;28;20188;-63
2022/12/19 11:47:24;;;;;;;3.10;2.90;;;10.40;99.90;;;;;;4971024;28;20248;-63
2022/12/19 11:49:59;;;;;;;3.80;3.40;;;10.40;99.90;;;;;;4986563;28;20206;-64
2022/12/19 11:52:39;;;;;;;4.60;3.00;;;10.30;99.90;;;;;;4972018;28;20244;-63
2022/12/19 11:55:36;;;;;;;3.50;3.20;;;10.30;99.90;;;;;;4970993;28;20304;-63
2022/12/19 11:58:05;;;;;;;3.13;3.03;;;10.40;99.90;;;;;;4954485;28;20520;-63
2022/12/19 12:00:34;;;;;;;3.67;3.37;;;10.40;99.90;;;;;;4952550;29;20520;-63
2022/12/19 12:03:51;;;;;;;3.20;3.00;;;10.40;99.90;;;;;;4951848;29;20203;-63
2022/12/19 12:06:33;;;;;;;6.97;3.30;;;10.40;99.90;;;;;;4912578;28;20212;-63
2022/12/19 12:09:17;;;;;;;3.73;3.00;;;10.40;99.90;;;;;;4951945;29;20659;-63
2022/12/19 12:12:18;;;;;;;3.10;2.93;;;10.50;99.90;;;;;;4952013;29;20196;-63
2022/12/19 12:19:14;;;;;;;4.27;3.17;;;10.50;99.90;;;;;;4954432;28;20243;-63
2022/12/19 12:22:16;;;;;;;3.33;3.07;;;10.50;99.90;;;;;;4954078;29;20666;-63
2022/12/19 12:25:17;;;;;;;3.97;3.10;;;10.40;99.90;;;;;;4954096;29;20191;-63
2022/12/19 12:28:25;;;;;;;5.23;3.20;;;10.30;99.90;;;;;;4954855;29;20195;-63
2022/12/19 12:31:31;;;;;;;3.17;2.97;;;10.30;99.90;;;;;;4954767;29;20200;-63
2022/12/19 12:34:42;;;;;;;3.37;3.13;;;10.40;99.90;;;;;;4953369;29;20616;-63
2022/12/19 12:37:47;;;;;;;3.00;2.80;;;10.30;99.90;;;;;;4955503;28;20192;-64
2022/12/19 12:41:01;;;;;;;3.27;3.00;;;10.30;99.90;;;;;;4954514;29;20204;-64
2022/12/19 12:43:47;;;;;;;3.30;3.10;;;10.40;99.90;;;;;;4954853;28;20200;-63
2022/12/19 12:46:20;;;;;;;2.83;2.63;;;10.40;99.90;;;;;;4954723;28;20196;-63
2022/12/19 12:48:54;;;;;;;3.40;3.10;;;10.40;99.90;;;;;;4970149;28;20197;-63
2022/12/19 12:51:25;;;;;;;3.00;2.80;;;10.40;99.90;;;;;;4954794;29;20193;-63
2022/12/19 12:53:59;;;;;;;3.23;3.00;;;10.40;99.90;;;;;;4954717;29;20577;-63
2022/12/19 12:56:28;;;;;;;3.30;3.10;;;10.50;99.90;;;;;;4954835;28;20227;-63
2022/12/19 12:59:06;;;;;;;3.40;3.10;;;10.50;99.90;;;;;;4954236;29;20524;-63
2022/12/19 13:01:38;;;;;;;7.53;3.07;;;10.50;99.90;;;;;;4954432;29;20276;-63
2022/12/19 13:08:53;;;;;;;5.23;2.90;;;10.60;99.90;;;;;;4954761;29;20179;-64
2022/12/19 13:14:45;;;;;;;3.50;3.17;;;10.50;99.90;;;;;;4953435;29;20224;-63
2022/12/19 13:17:19;;;;;;;3.03;2.80;;;10.50;99.90;;;;;;4954230;29;20235;-64
2022/12/19 13:19:54;;;;;;;4.10;3.00;;;10.50;99.90;;;;;;4954160;28;20196;-63
2022/12/19 13:22:39;;;;;;;2.87;2.73;;;10.50;99.90;;;;;;4952991;29;20192;-64
2022/12/19 13:25:43;;;;;;;2.93;2.70;;;10.60;99.90;;;;;;4954028;29;20188;-64
2022/12/19 13:28:38;;;;;;;2.93;2.60;;;10.70;99.90;;;;;;4940882;28;20634;-64
2022/12/19 13:31:17;;;;;;;2.80;2.70;;;10.70;99.90;;;;;;4952958;29;20441;-63
2022/12/19 13:34:15;;;;;;;2.63;2.43;;;10.70;99.90;;;;;;4953863;28;20203;-63
2022/12/19 13:36:52;;;;;;;3.30;3.10;;;10.80;99.90;;;;;;4953410;28;20249;-63
2022/12/19 13:39:47;;;;;;;3.23;3.03;;;10.80;99.90;;;;;;4953782;28;20547;-63
2022/12/19 13:45:41;;;;;;;3.50;3.20;;;10.80;99.90;;;;;;4953638;29;20297;-63
2022/12/19 13:48:16;;;;;;;3.60;3.00;;;10.80;99.90;;;;;;4953684;29;20303;-64
2022/12/19 13:50:47;;;;;;;3.17;2.93;;;10.90;99.90;;;;;;4953612;29;20210;-63
2022/12/19 13:53:18;;;;;;;3.17;2.87;;;10.90;99.90;;;;;;4953601;28;20629;-63
2022/12/19 14:00:35;;;;;;;3.23;2.93;;;10.90;99.90;;;;;;4953814;29;20603;-64
2022/12/19 14:03:15;;;;;;;3.80;2.93;;;10.90;99.90;;;;;;4953496;28;20198;-63
2022/12/19 14:05:44;;;;;;;3.13;2.87;;;10.80;99.90;;;;;;4953964;28;20246;-63